sensor_id;sensor_type;location;lat;lon;timestamp;pressure;altitude;pressure_sealevel;temperature;humidity
39937;BME280;27803;42.740;23.340;2022-11-20T00:02:15;94863.50;;;15.84;100.00
39937;BME280;27803;42.740;23.340;2022-11-20T00:04:41;94864.94;;;15.75;100.00
39937;BME280;27803;42.740;23.340;2022-11-20T00:07:06;94857.66;;;15.82;100.00
39937;BME280;27803;42.740;23.340;2022-11-20T00:09:32;94844.50;;;15.82;100.00
39937;BME280;27803;42.740;23.340;2022-11-20T00:11:57;94825.34;;;15.70;100.00
39937;BME280;27803;42.740;23.340;2022-11-20T00:14:22;94837.47;;;15.71;100.00
39937;BME280;27803;42.740;23.340;2022-11-20T00:16:48;94835.94;;;15.75;100.00
39937;BME280;27803;42.740;23.340;2022-11-20T00:19:13;94834.13;;;15.76;100.00
39937;BME280;27803;42.740;23.340;2022-11-20T00:21:39;94841.72;;;15.72;100.00
39937;BME280;27803;42.740;23.340;2022-11-20T00:24:04;94815.56;;;15.87;100.00
39937;BME280;27803;42.740;23.340;2022-11-20T00:26:30;94824.09;;;16.16;100.00
39937;BME280;27803;42.740;23.340;2022-11-20T00:29:00;94829.41;;;16.43;100.00
39937;BME280;27803;42.740;23.340;2022-11-20T00:31:26;94849.31;;;16.29;100.00
39937;BME280;27803;42.740;23.340;2022-11-20T00:33:52;94848.22;;;16.25;100.00
39937;BME280;27803;42.740;23.340;2022-11-20T00:36:24;94816.69;;;16.62;100.00
39937;BME280;27803;42.740;23.340;2022-11-20T00:38:54;94846.09;;;16.71;100.00
39937;BME280;27803;42.740;23.340;2022-11-20T00:41:20;94817.38;;;16.52;100.00
39937;BME280;27803;42.740;23.340;2022-11-20T00:43:46;94832.06;;;16.65;100.00
39937;BME280;27803;42.740;23.340;2022-11-20T00:46:17;94826.16;;;16.58;100.00
39937;BME280;27803;42.740;23.340;2022-11-20T00:48:44;94829.53;;;16.53;100.00
39937;BME280;27803;42.740;23.340;2022-11-20T00:51:11;94851.94;;;16.51;100.00
39937;BME280;27803;42.740;23.340;2022-11-20T00:53:37;94851.75;;;16.57;100.00
39937;BME280;27803;42.740;23.340;2022-11-20T00:56:06;94866.47;;;16.53;100.00
39937;BME280;27803;42.740;23.340;2022-11-20T00:58:36;94865.03;;;16.41;100.00
39937;BME280;27803;42.740;23.340;2022-11-20T01:01:14;94858.38;;;16.38;100.00
39937;BME280;27803;42.740;23.340;2022-11-20T01:03:44;94841.38;;;16.51;100.00
39937;BME280;27803;42.740;23.340;2022-11-20T01:06:21;94853.66;;;16.62;100.00
39937;BME280;27803;42.740;23.340;2022-11-20T01:08:48;94844.88;;;16.56;100.00
39937;BME280;27803;42.740;23.340;2022-11-20T01:11:18;94828.72;;;16.53;100.00
39937;BME280;27803;42.740;23.340;2022-11-20T01:13:45;94835.72;;;16.64;100.00
39937;BME280;27803;42.740;23.340;2022-11-20T01:16:29;94811.59;;;16.55;100.00
39937;BME280;27803;42.740;23.340;2022-11-20T01:18:57;94811.72;;;16.66;100.00
39937;BME280;27803;42.740;23.340;2022-11-20T01:21:26;94782.91;;;16.37;100.00
39937;BME280;27803;42.740;23.340;2022-11-20T01:23:53;94830.97;;;16.88;99.59
39937;BME280;27803;42.740;23.340;2022-11-20T01:26:21;94824.34;;;17.17;97.13
39937;BME280;27803;42.740;23.340;2022-11-20T01:28:47;94821.84;;;17.33;94.91
39937;BME280;27803;42.740;23.340;2022-11-20T01:33:47;94803.34;;;17.38;93.88
39937;BME280;27803;42.740;23.340;2022-11-20T01:36:14;94803.91;;;17.45;94.77
39937;BME280;27803;42.740;23.340;2022-11-20T01:38:39;94811.25;;;17.33;95.82
39937;BME280;27803;42.740;23.340;2022-11-20T01:41:06;94823.41;;;17.34;97.77
39937;BME280;27803;42.740;23.340;2022-11-20T01:43:32;94782.00;;;17.07;97.65
39937;BME280;27803;42.740;23.340;2022-11-20T01:48:47;94793.75;;;17.21;96.56
39937;BME280;27803;42.740;23.340;2022-11-20T01:51:29;94810.19;;;17.34;95.01
39937;BME280;27803;42.740;23.340;2022-11-20T01:53:59;94813.13;;;17.37;92.53
39937;BME280;27803;42.740;23.340;2022-11-20T01:56:26;94802.91;;;17.51;92.28
39937;BME280;27803;42.740;23.340;2022-11-20T01:58:56;94807.38;;;17.50;92.18
39937;BME280;27803;42.740;23.340;2022-11-20T02:01:23;94782.78;;;17.45;93.10
39937;BME280;27803;42.740;23.340;2022-11-20T02:03:49;94781.25;;;17.54;92.31
39937;BME280;27803;42.740;23.340;2022-11-20T02:06:38;94761.09;;;17.48;90.42
39937;BME280;27803;42.740;23.340;2022-11-20T02:09:05;94786.59;;;17.64;90.16
39937;BME280;27803;42.740;23.340;2022-11-20T02:11:31;94794.28;;;17.66;89.71
39937;BME280;27803;42.740;23.340;2022-11-20T02:13:57;94804.03;;;17.65;90.50
39937;BME280;27803;42.740;23.340;2022-11-20T02:16:26;94781.31;;;17.64;91.04
39937;BME280;27803;42.740;23.340;2022-11-20T02:18:55;94799.25;;;17.57;91.62
39937;BME280;27803;42.740;23.340;2022-11-20T02:21:33;94797.38;;;17.57;91.14
39937;BME280;27803;42.740;23.340;2022-11-20T02:24:08;94764.28;;;17.50;90.51
39937;BME280;27803;42.740;23.340;2022-11-20T02:26:43;94783.41;;;17.62;89.67
39937;BME280;27803;42.740;23.340;2022-11-20T02:29:10;94812.19;;;17.58;89.01
39937;BME280;27803;42.740;23.340;2022-11-20T02:31:41;94796.53;;;17.47;89.65
39937;BME280;27803;42.740;23.340;2022-11-20T02:34:07;94801.00;;;17.83;86.10
39937;BME280;27803;42.740;23.340;2022-11-20T02:36:34;94795.53;;;18.00;82.70
39937;BME280;27803;42.740;23.340;2022-11-20T02:39:02;94796.88;;;18.08;84.12
39937;BME280;27803;42.740;23.340;2022-11-20T02:41:37;94815.19;;;18.19;83.20
39937;BME280;27803;42.740;23.340;2022-11-20T02:44:03;94800.06;;;18.10;82.19
39937;BME280;27803;42.740;23.340;2022-11-20T02:46:30;94823.41;;;18.23;83.69
39937;BME280;27803;42.740;23.340;2022-11-20T02:48:55;94826.03;;;18.13;84.06
39937;BME280;27803;42.740;23.340;2022-11-20T02:51:21;94828.13;;;18.11;85.26
39937;BME280;27803;42.740;23.340;2022-11-20T02:53:46;94829.91;;;17.95;86.18
39937;BME280;27803;42.740;23.340;2022-11-20T02:56:12;94838.09;;;17.94;85.31
39937;BME280;27803;42.740;23.340;2022-11-20T02:58:37;94826.44;;;17.89;85.55
39937;BME280;27803;42.740;23.340;2022-11-20T03:01:03;94850.31;;;18.05;85.37
39937;BME280;27803;42.740;23.340;2022-11-20T03:03:28;94857.78;;;18.13;85.66
39937;BME280;27803;42.740;23.340;2022-11-20T03:05:53;94845.66;;;18.22;86.12
39937;BME280;27803;42.740;23.340;2022-11-20T03:08:19;94842.97;;;18.17;85.30
39937;BME280;27803;42.740;23.340;2022-11-20T03:10:44;94871.38;;;18.32;85.80
39937;BME280;27803;42.740;23.340;2022-11-20T03:13:09;94874.28;;;18.35;86.51
39937;BME280;27803;42.740;23.340;2022-11-20T03:15:36;94875.88;;;18.31;87.32
39937;BME280;27803;42.740;23.340;2022-11-20T03:18:02;94860.44;;;18.18;87.73
39937;BME280;27803;42.740;23.340;2022-11-20T03:20:27;94865.22;;;18.16;88.38
39937;BME280;27803;42.740;23.340;2022-11-20T03:22:54;94865.50;;;18.19;88.33
39937;BME280;27803;42.740;23.340;2022-11-20T03:25:20;94862.38;;;18.33;87.60
39937;BME280;27803;42.740;23.340;2022-11-20T03:27:46;94857.28;;;18.21;87.42
39937;BME280;27803;42.740;23.340;2022-11-20T03:30:11;94863.16;;;18.33;86.16
39937;BME280;27803;42.740;23.340;2022-11-20T03:32:37;94881.19;;;18.36;86.59
39937;BME280;27803;42.740;23.340;2022-11-20T03:35:02;94871.06;;;18.23;87.09
39937;BME280;27803;42.740;23.340;2022-11-20T03:37:28;94893.34;;;18.32;87.70
39937;BME280;27803;42.740;23.340;2022-11-20T03:39:53;94880.91;;;18.33;86.53
39937;BME280;27803;42.740;23.340;2022-11-20T03:42:19;94874.00;;;18.27;88.51
39937;BME280;27803;42.740;23.340;2022-11-20T03:45:04;94883.72;;;18.16;89.91
39937;BME280;27803;42.740;23.340;2022-11-20T03:47:29;94880.78;;;18.07;90.74
39937;BME280;27803;42.740;23.340;2022-11-20T03:49:54;94874.94;;;18.05;91.01
39937;BME280;27803;42.740;23.340;2022-11-20T03:52:20;94894.22;;;18.01;91.56
39937;BME280;27803;42.740;23.340;2022-11-20T03:54:45;94869.28;;;17.86;92.20
39937;BME280;27803;42.740;23.340;2022-11-20T03:57:10;94869.34;;;17.97;93.17
39937;BME280;27803;42.740;23.340;2022-11-20T03:59:36;94861.25;;;17.71;94.11
39937;BME280;27803;42.740;23.340;2022-11-20T04:02:01;94874.47;;;17.71;94.39
39937;BME280;27803;42.740;23.340;2022-11-20T04:04:27;94866.53;;;17.71;93.38
39937;BME280;27803;42.740;23.340;2022-11-20T04:06:52;94878.94;;;17.71;92.98
39937;BME280;27803;42.740;23.340;2022-11-20T04:09:17;94866.97;;;17.63;92.58
39937;BME280;27803;42.740;23.340;2022-11-20T04:11:43;94903.31;;;17.73;92.97
39937;BME280;27803;42.740;23.340;2022-11-20T04:14:13;94886.63;;;17.72;93.70
39937;BME280;27803;42.740;23.340;2022-11-20T04:16:39;94854.28;;;17.65;93.96
39937;BME280;27803;42.740;23.340;2022-11-20T04:19:08;94887.97;;;17.75;92.65
39937;BME280;27803;42.740;23.340;2022-11-20T04:21:34;94885.66;;;17.83;92.61
39937;BME280;27803;42.740;23.340;2022-11-20T04:24:00;94865.47;;;17.72;92.63
39937;BME280;27803;42.740;23.340;2022-11-20T04:26:27;94890.16;;;17.83;93.08
39937;BME280;27803;42.740;23.340;2022-11-20T04:28:53;94869.72;;;17.73;93.71
39937;BME280;27803;42.740;23.340;2022-11-20T04:31:21;94863.84;;;17.66;93.87
39937;BME280;27803;42.740;23.340;2022-11-20T04:33:46;94850.28;;;17.57;92.86
39937;BME280;27803;42.740;23.340;2022-11-20T04:36:17;94856.47;;;17.68;91.97
39937;BME280;27803;42.740;23.340;2022-11-20T04:38:44;94848.69;;;17.56;91.07
39937;BME280;27803;42.740;23.340;2022-11-20T04:41:16;94848.38;;;17.53;91.62
39937;BME280;27803;42.740;23.340;2022-11-20T04:43:46;94865.22;;;17.74;90.21
39937;BME280;27803;42.740;23.340;2022-11-20T04:46:12;94868.56;;;17.64;89.74
39937;BME280;27803;42.740;23.340;2022-11-20T04:48:38;94878.44;;;17.74;90.68
39937;BME280;27803;42.740;23.340;2022-11-20T04:51:03;94847.91;;;17.61;90.24
39937;BME280;27803;42.740;23.340;2022-11-20T04:53:29;94849.09;;;17.75;88.93
39937;BME280;27803;42.740;23.340;2022-11-20T04:56:08;94850.72;;;17.81;87.67
39937;BME280;27803;42.740;23.340;2022-11-20T04:58:35;94873.25;;;17.89;87.76
39937;BME280;27803;42.740;23.340;2022-11-20T05:01:05;94852.38;;;17.93;88.07
39937;BME280;27803;42.740;23.340;2022-11-20T05:03:31;94839.06;;;17.77;87.75
39937;BME280;27803;42.740;23.340;2022-11-20T05:06:01;94848.22;;;18.07;86.43
39937;BME280;27803;42.740;23.340;2022-11-20T05:08:27;94813.22;;;17.95;86.39
39937;BME280;27803;42.740;23.340;2022-11-20T05:10:52;94819.03;;;17.92;87.15
39937;BME280;27803;42.740;23.340;2022-11-20T05:13:18;94841.88;;;18.08;86.08
39937;BME280;27803;42.740;23.340;2022-11-20T05:15:43;94841.09;;;18.12;86.06
39937;BME280;27803;42.740;23.340;2022-11-20T05:18:08;94834.44;;;18.05;86.64
39937;BME280;27803;42.740;23.340;2022-11-20T05:23:09;94820.34;;;17.89;85.42
39937;BME280;27803;42.740;23.340;2022-11-20T05:25:34;94841.84;;;18.03;86.21
39937;BME280;27803;42.740;23.340;2022-11-20T05:28:00;94842.91;;;18.02;86.50
39937;BME280;27803;42.740;23.340;2022-11-20T05:30:25;94857.66;;;17.93;87.39
39937;BME280;27803;42.740;23.340;2022-11-20T05:32:50;94839.13;;;17.87;87.63
39937;BME280;27803;42.740;23.340;2022-11-20T05:35:16;94806.25;;;17.73;88.14
39937;BME280;27803;42.740;23.340;2022-11-20T05:37:41;94828.47;;;17.77;89.61
39937;BME280;27803;42.740;23.340;2022-11-20T05:40:07;94827.41;;;17.73;91.19
39937;BME280;27803;42.740;23.340;2022-11-20T05:42:32;94830.19;;;17.62;93.57
39937;BME280;27803;42.740;23.340;2022-11-20T05:44:58;94816.59;;;17.43;95.55
39937;BME280;27803;42.740;23.340;2022-11-20T05:47:25;94840.97;;;17.50;97.02
39937;BME280;27803;42.740;23.340;2022-11-20T05:49:50;94834.50;;;17.31;99.24
39937;BME280;27803;42.740;23.340;2022-11-20T05:52:15;94846.72;;;17.42;100.00
39937;BME280;27803;42.740;23.340;2022-11-20T05:54:41;94818.06;;;17.23;100.00
39937;BME280;27803;42.740;23.340;2022-11-20T05:57:06;94845.13;;;17.41;100.00
39937;BME280;27803;42.740;23.340;2022-11-20T05:59:31;94841.44;;;17.42;100.00
39937;BME280;27803;42.740;23.340;2022-11-20T06:01:57;94823.19;;;17.40;99.90
39937;BME280;27803;42.740;23.340;2022-11-20T06:04:22;94846.44;;;17.38;100.00
39937;BME280;27803;42.740;23.340;2022-11-20T06:06:48;94826.38;;;17.42;99.42
39937;BME280;27803;42.740;23.340;2022-11-20T06:09:13;94830.06;;;17.41;98.89
39937;BME280;27803;42.740;23.340;2022-11-20T06:11:38;94859.19;;;17.46;98.08
39937;BME280;27803;42.740;23.340;2022-11-20T06:14:04;94855.19;;;17.44;98.53
39937;BME280;27803;42.740;23.340;2022-11-20T06:16:29;94870.25;;;17.43;98.70
39937;BME280;27803;42.740;23.340;2022-11-20T06:18:55;94866.56;;;17.44;99.09
39937;BME280;27803;42.740;23.340;2022-11-20T06:21:22;94809.88;;;17.25;98.86
39937;BME280;27803;42.740;23.340;2022-11-20T06:23:48;94803.41;;;17.48;96.94
39937;BME280;27803;42.740;23.340;2022-11-20T06:26:22;94818.25;;;17.54;95.92
39937;BME280;27803;42.740;23.340;2022-11-20T06:28:48;94783.25;;;17.37;96.13
39937;BME280;27803;42.740;23.340;2022-11-20T06:31:16;94814.09;;;17.63;91.67
39937;BME280;27803;42.740;23.340;2022-11-20T06:33:42;94853.44;;;17.92;90.03
39937;BME280;27803;42.740;23.340;2022-11-20T06:36:10;94868.19;;;17.82;93.46
39937;BME280;27803;42.740;23.340;2022-11-20T06:38:36;94849.09;;;17.75;94.65
39937;BME280;27803;42.740;23.340;2022-11-20T06:41:03;94869.72;;;17.73;93.35
39937;BME280;27803;42.740;23.340;2022-11-20T06:43:29;94871.59;;;17.78;92.80
39937;BME280;27803;42.740;23.340;2022-11-20T06:45:55;94855.44;;;17.74;93.97
39937;BME280;27803;42.740;23.340;2022-11-20T06:48:22;94788.16;;;17.60;93.74
39937;BME280;27803;42.740;23.340;2022-11-20T06:50:48;94835.91;;;17.80;91.26
39937;BME280;27803;42.740;23.340;2022-11-20T06:53:14;94862.13;;;17.87;88.13
39937;BME280;27803;42.740;23.340;2022-11-20T06:55:44;94870.66;;;17.94;88.98
39937;BME280;27803;42.740;23.340;2022-11-20T06:58:10;94880.94;;;17.91;89.11
39937;BME280;27803;42.740;23.340;2022-11-20T07:00:36;94868.25;;;17.93;89.14
39937;BME280;27803;42.740;23.340;2022-11-20T07:03:05;94867.75;;;17.96;90.08
39937;BME280;27803;42.740;23.340;2022-11-20T07:05:31;94860.84;;;17.95;92.65
39937;BME280;27803;42.740;23.340;2022-11-20T07:07:57;94844.28;;;17.67;94.95
39937;BME280;27803;42.740;23.340;2022-11-20T07:10:23;94859.34;;;17.67;95.17
39937;BME280;27803;42.740;23.340;2022-11-20T07:12:50;94884.56;;;17.79;93.14
39937;BME280;27803;42.740;23.340;2022-11-20T07:15:16;94911.00;;;17.79;95.68
39937;BME280;27803;42.740;23.340;2022-11-20T07:17:42;94912.03;;;17.73;97.41
39937;BME280;27803;42.740;23.340;2022-11-20T07:20:07;94896.41;;;17.40;100.00
39937;BME280;27803;42.740;23.340;2022-11-20T07:22:33;94894.16;;;17.21;100.00
39937;BME280;27803;42.740;23.340;2022-11-20T07:24:58;94912.59;;;17.16;100.00
39937;BME280;27803;42.740;23.340;2022-11-20T07:27:24;94879.00;;;16.85;100.00
39937;BME280;27803;42.740;23.340;2022-11-20T07:29:49;94880.09;;;16.89;100.00
39937;BME280;27803;42.740;23.340;2022-11-20T07:32:14;94891.38;;;17.06;100.00
39937;BME280;27803;42.740;23.340;2022-11-20T07:34:40;94862.56;;;17.05;98.45
39937;BME280;27803;42.740;23.340;2022-11-20T07:37:05;94879.69;;;17.29;100.00
39937;BME280;27803;42.740;23.340;2022-11-20T07:39:30;94890.97;;;17.19;100.00
39937;BME280;27803;42.740;23.340;2022-11-20T07:41:56;94918.97;;;17.20;100.00
39937;BME280;27803;42.740;23.340;2022-11-20T07:44:21;94919.47;;;17.17;100.00
39937;BME280;27803;42.740;23.340;2022-11-20T07:46:46;94925.75;;;17.11;100.00
39937;BME280;27803;42.740;23.340;2022-11-20T07:49:12;94920.94;;;17.03;100.00
39937;BME280;27803;42.740;23.340;2022-11-20T07:51:37;94921.97;;;17.02;100.00
39937;BME280;27803;42.740;23.340;2022-11-20T07:54:02;94880.28;;;16.82;100.00
39937;BME280;27803;42.740;23.340;2022-11-20T07:56:28;94898.63;;;16.94;100.00
39937;BME280;27803;42.740;23.340;2022-11-20T07:58:53;94890.97;;;16.92;100.00
39937;BME280;27803;42.740;23.340;2022-11-20T08:01:19;94894.09;;;16.89;100.00
39937;BME280;27803;42.740;23.340;2022-11-20T08:03:44;94884.88;;;16.92;100.00
39937;BME280;27803;42.740;23.340;2022-11-20T08:06:10;94893.66;;;16.98;100.00
39937;BME280;27803;42.740;23.340;2022-11-20T08:08:35;94868.97;;;16.87;100.00
39937;BME280;27803;42.740;23.340;2022-11-20T08:11:00;94887.56;;;16.97;100.00
39937;BME280;27803;42.740;23.340;2022-11-20T08:13:44;94909.69;;;16.91;100.00
39937;BME280;27803;42.740;23.340;2022-11-20T08:16:28;94923.78;;;16.75;100.00
39937;BME280;27803;42.740;23.340;2022-11-20T08:18:54;94881.97;;;16.67;100.00
39937;BME280;27803;42.740;23.340;2022-11-20T08:21:20;94882.59;;;16.74;100.00
39937;BME280;27803;42.740;23.340;2022-11-20T08:23:45;94873.41;;;16.59;100.00
39937;BME280;27803;42.740;23.340;2022-11-20T08:26:11;94900.38;;;16.62;100.00
39937;BME280;27803;42.740;23.340;2022-11-20T08:28:36;94889.25;;;16.59;100.00
39937;BME280;27803;42.740;23.340;2022-11-20T08:31:02;94887.00;;;16.68;100.00
39937;BME280;27803;42.740;23.340;2022-11-20T08:33:28;94881.88;;;16.62;100.00
39937;BME280;27803;42.740;23.340;2022-11-20T08:35:59;94891.91;;;16.59;100.00
39937;BME280;27803;42.740;23.340;2022-11-20T08:38:25;94884.59;;;16.45;100.00
39937;BME280;27803;42.740;23.340;2022-11-20T08:40:50;94878.53;;;16.44;100.00
39937;BME280;27803;42.740;23.340;2022-11-20T08:43:34;94886.63;;;16.59;100.00
39937;BME280;27803;42.740;23.340;2022-11-20T08:45:59;94910.78;;;16.68;100.00
39937;BME280;27803;42.740;23.340;2022-11-20T08:48:25;94889.19;;;16.54;100.00
39937;BME280;27803;42.740;23.340;2022-11-20T08:50:50;94915.75;;;16.65;100.00
39937;BME280;27803;42.740;23.340;2022-11-20T08:53:15;94944.69;;;16.59;100.00
39937;BME280;27803;42.740;23.340;2022-11-20T08:55:41;94963.28;;;16.48;100.00
39937;BME280;27803;42.740;23.340;2022-11-20T08:58:06;94939.78;;;16.46;100.00
39937;BME280;27803;42.740;23.340;2022-11-20T09:00:33;94951.56;;;16.60;100.00
39937;BME280;27803;42.740;23.340;2022-11-20T09:02:59;94939.09;;;16.56;100.00
39937;BME280;27803;42.740;23.340;2022-11-20T09:05:26;94934.63;;;16.56;100.00
39937;BME280;27803;42.740;23.340;2022-11-20T09:07:51;94944.06;;;16.52;100.00
39937;BME280;27803;42.740;23.340;2022-11-20T09:10:17;94918.41;;;16.26;100.00
39937;BME280;27803;42.740;23.340;2022-11-20T09:12:42;94951.31;;;16.40;100.00
39937;BME280;27803;42.740;23.340;2022-11-20T09:15:08;94926.72;;;16.18;100.00
39937;BME280;27803;42.740;23.340;2022-11-20T09:17:33;94923.06;;;16.19;100.00
39937;BME280;27803;42.740;23.340;2022-11-20T09:19:58;94935.44;;;16.18;100.00
39937;BME280;27803;42.740;23.340;2022-11-20T09:22:24;94955.59;;;16.24;100.00
39937;BME280;27803;42.740;23.340;2022-11-20T09:24:49;94951.59;;;16.22;100.00
39937;BME280;27803;42.740;23.340;2022-11-20T09:27:14;94938.25;;;16.12;100.00
39937;BME280;27803;42.740;23.340;2022-11-20T09:29:44;94947.06;;;16.01;100.00
39937;BME280;27803;42.740;23.340;2022-11-20T09:32:09;94939.88;;;15.96;100.00
39937;BME280;27803;42.740;23.340;2022-11-20T09:34:35;94933.97;;;15.89;100.00
39937;BME280;27803;42.740;23.340;2022-11-20T09:37:00;94928.22;;;15.75;100.00
39937;BME280;27803;42.740;23.340;2022-11-20T09:39:26;94925.09;;;15.78;100.00
39937;BME280;27803;42.740;23.340;2022-11-20T09:53:33;94910.19;;;15.67;100.00
39937;BME280;27803;42.740;23.340;2022-11-20T09:55:50;94900.09;;;15.64;100.00
39937;BME280;27803;42.740;23.340;2022-11-20T11:49:44;94874.28;;;13.44;100.00
39937;BME280;27803;42.740;23.340;2022-11-20T11:52:18;94831.34;;;13.26;100.00
39937;BME280;27803;42.740;23.340;2022-11-20T11:55:03;94842.06;;;13.25;100.00
39937;BME280;27803;42.740;23.340;2022-11-20T12:00:28;94882.97;;;13.56;100.00
39937;BME280;27803;42.740;23.340;2022-11-20T12:03:12;94868.00;;;13.45;100.00
39937;BME280;27803;42.740;23.340;2022-11-20T12:05:43;94927.88;;;13.66;100.00
39937;BME280;27803;42.740;23.340;2022-11-20T12:13:18;94879.97;;;13.41;100.00
39937;BME280;27803;42.740;23.340;2022-11-20T12:15:47;94901.81;;;13.53;100.00
39937;BME280;27803;42.740;23.340;2022-11-20T12:18:21;94858.50;;;13.20;100.00
39937;BME280;27803;42.740;23.340;2022-11-20T12:23:53;94886.59;;;13.31;100.00
39937;BME280;27803;42.740;23.340;2022-11-20T12:29:21;94874.72;;;13.29;100.00
39937;BME280;27803;42.740;23.340;2022-11-20T12:40:16;94882.25;;;13.25;100.00
39937;BME280;27803;42.740;23.340;2022-11-20T12:42:53;94858.34;;;13.15;100.00
39937;BME280;27803;42.740;23.340;2022-11-20T12:45:54;94833.78;;;12.98;100.00
39937;BME280;27803;42.740;23.340;2022-11-20T12:51:35;94839.66;;;12.82;100.00
39937;BME280;27803;42.740;23.340;2022-11-20T12:57:07;94856.53;;;12.74;100.00
39937;BME280;27803;42.740;23.340;2022-11-20T13:00:01;94837.81;;;12.70;100.00
39937;BME280;27803;42.740;23.340;2022-11-20T13:03:03;94842.13;;;12.65;100.00
39937;BME280;27803;42.740;23.340;2022-11-20T13:08:15;94809.47;;;12.49;100.00
39937;BME280;27803;42.740;23.340;2022-11-20T13:11:07;94844.09;;;12.69;100.00
39937;BME280;27803;42.740;23.340;2022-11-20T13:14:07;94825.16;;;12.67;100.00
39937;BME280;27803;42.740;23.340;2022-11-20T13:16:49;94821.50;;;12.68;100.00
39937;BME280;27803;42.740;23.340;2022-11-20T13:19:17;94831.84;;;12.63;100.00
39937;BME280;27803;42.740;23.340;2022-11-20T13:21:45;94841.38;;;12.76;100.00
39937;BME280;27803;42.740;23.340;2022-11-20T13:27:33;94829.28;;;12.75;100.00
39937;BME280;27803;42.740;23.340;2022-11-20T13:29:36;94808.72;;;12.72;100.00
39937;BME280;27803;42.740;23.340;2022-11-20T13:32:12;94815.56;;;12.73;100.00
39937;BME280;27803;42.740;23.340;2022-11-20T13:34:39;94791.28;;;12.78;100.00
39937;BME280;27803;42.740;23.340;2022-11-20T13:37:04;94786.50;;;12.75;100.00
39937;BME280;27803;42.740;23.340;2022-11-20T13:39:35;94770.28;;;12.66;100.00
39937;BME280;27803;42.740;23.340;2022-11-20T13:42:18;94800.44;;;12.87;100.00
39937;BME280;27803;42.740;23.340;2022-11-20T13:44:54;94805.00;;;12.91;100.00
39937;BME280;27803;42.740;23.340;2022-11-20T13:47:25;94792.56;;;12.87;100.00
39937;BME280;27803;42.740;23.340;2022-11-20T13:49:52;94768.69;;;12.77;100.00
39937;BME280;27803;42.740;23.340;2022-11-20T14:01:23;94795.19;;;12.87;100.00
39937;BME280;27803;42.740;23.340;2022-11-20T14:03:49;94802.03;;;12.88;100.00
39937;BME280;27803;42.740;23.340;2022-11-20T14:06:28;94800.78;;;12.90;100.00
39937;BME280;27803;42.740;23.340;2022-11-20T14:08:55;94792.47;;;12.93;100.00
39937;BME280;27803;42.740;23.340;2022-11-20T14:11:23;94767.78;;;12.83;100.00
39937;BME280;27803;42.740;23.340;2022-11-20T14:16:33;94793.84;;;12.96;100.00
39937;BME280;27803;42.740;23.340;2022-11-20T14:21:47;94783.47;;;13.13;100.00
39937;BME280;27803;42.740;23.340;2022-11-20T14:24:13;94763.38;;;12.95;100.00
39937;BME280;27803;42.740;23.340;2022-11-20T14:26:43;94792.38;;;13.12;100.00
39937;BME280;27803;42.740;23.340;2022-11-20T14:29:29;94806.88;;;13.14;100.00
39937;BME280;27803;42.740;23.340;2022-11-20T14:31:56;94783.47;;;13.13;100.00
39937;BME280;27803;42.740;23.340;2022-11-20T14:34:24;94801.19;;;13.17;100.00
39937;BME280;27803;42.740;23.340;2022-11-20T14:36:59;94812.72;;;13.16;100.00
39937;BME280;27803;42.740;23.340;2022-11-20T14:39:30;94826.53;;;13.23;100.00
39937;BME280;27803;42.740;23.340;2022-11-20T14:41:57;94796.63;;;13.24;100.00
39937;BME280;27803;42.740;23.340;2022-11-20T14:44:33;94797.09;;;13.21;100.00
39937;BME280;27803;42.740;23.340;2022-11-20T14:47:01;94789.63;;;13.07;100.00
39937;BME280;27803;42.740;23.340;2022-11-20T14:49:29;94806.50;;;13.11;100.00
39937;BME280;27803;42.740;23.340;2022-11-20T14:52:20;94799.44;;;13.11;100.00
39937;BME280;27803;42.740;23.340;2022-11-20T14:54:55;94794.53;;;13.03;100.00
39937;BME280;27803;42.740;23.340;2022-11-20T14:59:49;94754.34;;;12.91;100.00
39937;BME280;27803;42.740;23.340;2022-11-20T15:02:14;94802.53;;;13.08;100.00
39937;BME280;27803;42.740;23.340;2022-11-20T15:04:50;94806.50;;;13.11;100.00
39937;BME280;27803;42.740;23.340;2022-11-20T15:07:32;94819.75;;;13.16;100.00
39937;BME280;27803;42.740;23.340;2022-11-20T15:10:00;94798.19;;;13.02;100.00
39937;BME280;27803;42.740;23.340;2022-11-20T15:12:26;94807.19;;;13.06;100.00
39937;BME280;27803;42.740;23.340;2022-11-20T15:14:52;94834.13;;;13.13;100.00
39937;BME280;27803;42.740;23.340;2022-11-20T15:17:17;94826.03;;;13.15;100.00
39937;BME280;27803;42.740;23.340;2022-11-20T15:19:42;94845.66;;;13.12;100.00
39937;BME280;27803;42.740;23.340;2022-11-20T15:22:11;94852.50;;;13.13;100.00
39937;BME280;27803;42.740;23.340;2022-11-20T15:24:41;94855.47;;;13.05;100.00
39937;BME280;27803;42.740;23.340;2022-11-20T15:27:08;94849.28;;;12.88;100.00
39937;BME280;27803;42.740;23.340;2022-11-20T15:29:33;94839.41;;;12.71;100.00
39937;BME280;27803;42.740;23.340;2022-11-20T15:31:59;94852.03;;;12.63;100.00
39937;BME280;27803;42.740;23.340;2022-11-20T15:34:27;94878.28;;;12.63;100.00
39937;BME280;27803;42.740;23.340;2022-11-20T15:36:52;94907.50;;;12.66;100.00
39937;BME280;27803;42.740;23.340;2022-11-20T15:39:18;94912.03;;;12.59;100.00
39937;BME280;27803;42.740;23.340;2022-11-20T15:41:43;94946.13;;;12.59;100.00
39937;BME280;27803;42.740;23.340;2022-11-20T15:44:09;94986.47;;;12.58;100.00
39937;BME280;27803;42.740;23.340;2022-11-20T15:46:40;95001.41;;;12.58;100.00
39937;BME280;27803;42.740;23.340;2022-11-20T15:49:17;94995.66;;;12.31;100.00
39937;BME280;27803;42.740;23.340;2022-11-20T15:51:46;94999.59;;;12.03;100.00
39937;BME280;27803;42.740;23.340;2022-11-20T15:54:14;94999.47;;;11.92;100.00